sensor_id;sensor_type;location;lat;lon;timestamp;pressure;altitude;pressure_sealevel;temperature;humidity
34696;BME280;20918;51.138;17.370;2023-03-26T00:01:50;99059.45;;;6.46;72.85
34696;BME280;20918;51.138;17.370;2023-03-26T00:04:54;99058.00;;;6.42;72.82
34696;BME280;20918;51.138;17.370;2023-03-26T00:07:54;99058.36;;;6.37;72.83
34696;BME280;20918;51.138;17.370;2023-03-26T00:10:55;99057.84;;;6.32;72.94
34696;BME280;20918;51.138;17.370;2023-03-26T00:13:56;99057.38;;;6.28;73.11
34696;BME280;20918;51.138;17.370;2023-03-26T00:17:00;99059.71;;;6.26;73.23
34696;BME280;20918;51.138;17.370;2023-03-26T00:20:01;99061.34;;;6.25;73.31
34696;BME280;20918;51.138;17.370;2023-03-26T00:23:06;99058.63;;;6.26;73.35
34696;BME280;20918;51.138;17.370;2023-03-26T00:26:18;99059.21;;;6.27;73.42
34696;BME280;20918;51.138;17.370;2023-03-26T00:29:21;99056.95;;;6.30;73.40
34696;BME280;20918;51.138;17.370;2023-03-26T00:32:27;99056.61;;;6.37;73.35
34696;BME280;20918;51.138;17.370;2023-03-26T00:35:27;99051.74;;;6.38;73.29
34696;BME280;20918;51.138;17.370;2023-03-26T00:38:29;99048.31;;;6.39;73.18
34696;BME280;20918;51.138;17.370;2023-03-26T00:41:30;99046.88;;;6.38;73.20
34696;BME280;20918;51.138;17.370;2023-03-26T00:44:31;99044.13;;;6.35;73.42
34696;BME280;20918;51.138;17.370;2023-03-26T00:47:34;99048.81;;;6.31;73.16
34696;BME280;20918;51.138;17.370;2023-03-26T00:50:35;99041.35;;;6.28;73.38
34696;BME280;20918;51.138;17.370;2023-03-26T00:53:36;99035.22;;;6.30;73.76
34696;BME280;20918;51.138;17.370;2023-03-26T00:56:41;99034.09;;;6.36;73.83
34696;BME280;20918;51.138;17.370;2023-03-26T00:59:45;99031.90;;;6.41;73.82
34696;BME280;20918;51.138;17.370;2023-03-26T01:03:06;99029.64;;;6.46;73.75
34696;BME280;20918;51.138;17.370;2023-03-26T01:06:07;99034.99;;;6.51;73.65
34696;BME280;20918;51.138;17.370;2023-03-26T01:09:17;99037.17;;;6.57;73.75
34696;BME280;20918;51.138;17.370;2023-03-26T01:12:20;99028.98;;;6.63;73.97
34696;BME280;20918;51.138;17.370;2023-03-26T01:15:24;99028.84;;;6.69;73.96
34696;BME280;20918;51.138;17.370;2023-03-26T01:18:31;99027.98;;;6.72;73.77
34696;BME280;20918;51.138;17.370;2023-03-26T01:21:40;99023.31;;;6.74;73.88
34696;BME280;20918;51.138;17.370;2023-03-26T01:24:41;99024.13;;;6.75;74.08
34696;BME280;20918;51.138;17.370;2023-03-26T01:27:53;99026.64;;;6.77;73.96
34696;BME280;20918;51.138;17.370;2023-03-26T01:31:08;99029.15;;;6.78;74.12
34696;BME280;20918;51.138;17.370;2023-03-26T01:34:20;99032.55;;;6.79;74.00
34696;BME280;20918;51.138;17.370;2023-03-26T01:37:36;99032.40;;;6.82;74.28
34696;BME280;20918;51.138;17.370;2023-03-26T01:40:46;99032.67;;;6.87;74.25
34696;BME280;20918;51.138;17.370;2023-03-26T01:43:59;99035.38;;;6.91;74.04
34696;BME280;20918;51.138;17.370;2023-03-26T01:47:03;99037.26;;;6.95;74.05
34696;BME280;20918;51.138;17.370;2023-03-26T01:50:05;99034.01;;;6.96;73.91
34696;BME280;20918;51.138;17.370;2023-03-26T01:53:06;99038.66;;;6.93;73.94
34696;BME280;20918;51.138;17.370;2023-03-26T01:56:10;99035.05;;;6.88;74.03
34696;BME280;20918;51.138;17.370;2023-03-26T02:02:29;99034.16;;;6.73;74.11
34696;BME280;20918;51.138;17.370;2023-03-26T02:05:34;99032.54;;;6.67;74.09
34696;BME280;20918;51.138;17.370;2023-03-26T02:08:37;99027.01;;;6.65;74.11
34696;BME280;20918;51.138;17.370;2023-03-26T02:11:42;99023.67;;;6.65;74.13
34696;BME280;20918;51.138;17.370;2023-03-26T02:14:44;99023.04;;;6.66;74.09
34696;BME280;20918;51.138;17.370;2023-03-26T02:17:50;99019.18;;;6.67;74.30
34696;BME280;20918;51.138;17.370;2023-03-26T02:20:58;99016.80;;;6.70;74.35
34696;BME280;20918;51.138;17.370;2023-03-26T02:24:00;99018.55;;;6.71;74.29
34696;BME280;20918;51.138;17.370;2023-03-26T02:27:05;99018.77;;;6.72;74.42
34696;BME280;20918;51.138;17.370;2023-03-26T02:30:08;99019.17;;;6.74;74.47
34696;BME280;20918;51.138;17.370;2023-03-26T02:33:10;99019.00;;;6.74;74.38
34696;BME280;20918;51.138;17.370;2023-03-26T02:36:15;99016.66;;;6.74;74.36
34696;BME280;20918;51.138;17.370;2023-03-26T02:39:25;99012.52;;;6.73;74.39
34696;BME280;20918;51.138;17.370;2023-03-26T02:42:30;99014.59;;;6.74;74.35
34696;BME280;20918;51.138;17.370;2023-03-26T02:45:54;99015.86;;;6.77;74.24
34696;BME280;20918;51.138;17.370;2023-03-26T02:49:18;99013.00;;;6.78;74.39
34696;BME280;20918;51.138;17.370;2023-03-26T02:52:18;99011.63;;;6.74;74.24
34696;BME280;20918;51.138;17.370;2023-03-26T02:55:21;99011.17;;;6.70;74.21
34696;BME280;20918;51.138;17.370;2023-03-26T02:58:25;99011.87;;;6.67;74.33
34696;BME280;20918;51.138;17.370;2023-03-26T03:01:26;99010.13;;;6.63;74.37
34696;BME280;20918;51.138;17.370;2023-03-26T03:04:33;99011.42;;;6.61;74.65
34696;BME280;20918;51.138;17.370;2023-03-26T03:07:34;99014.25;;;6.59;74.66
34696;BME280;20918;51.138;17.370;2023-03-26T03:10:37;99016.30;;;6.58;74.73
34696;BME280;20918;51.138;17.370;2023-03-26T03:13:46;99017.69;;;6.60;74.96
34696;BME280;20918;51.138;17.370;2023-03-26T03:16:52;99017.65;;;6.64;74.86
34696;BME280;20918;51.138;17.370;2023-03-26T03:19:54;99010.34;;;6.69;75.17
34696;BME280;20918;51.138;17.370;2023-03-26T03:22:55;99016.42;;;6.77;75.05
34696;BME280;20918;51.138;17.370;2023-03-26T03:25:56;99019.00;;;6.85;75.31
34696;BME280;20918;51.138;17.370;2023-03-26T03:28:59;99019.52;;;6.90;75.33
34696;BME280;20918;51.138;17.370;2023-03-26T03:32:03;99024.42;;;6.93;75.48
34696;BME280;20918;51.138;17.370;2023-03-26T03:35:11;99020.69;;;6.95;75.53
34696;BME280;20918;51.138;17.370;2023-03-26T03:38:12;99027.77;;;6.96;75.48
34696;BME280;20918;51.138;17.370;2023-03-26T03:41:19;99028.54;;;6.96;75.71
34696;BME280;20918;51.138;17.370;2023-03-26T03:44:20;99032.49;;;6.95;75.64
34696;BME280;20918;51.138;17.370;2023-03-26T03:47:20;99036.00;;;6.94;75.74
34696;BME280;20918;51.138;17.370;2023-03-26T03:50:22;99035.06;;;6.94;75.93
34696;BME280;20918;51.138;17.370;2023-03-26T03:54:01;99039.17;;;6.92;76.11
34696;BME280;20918;51.138;17.370;2023-03-26T03:57:30;99036.73;;;6.90;76.23
34696;BME280;20918;51.138;17.370;2023-03-26T04:00:35;99045.91;;;6.88;76.33
34696;BME280;20918;51.138;17.370;2023-03-26T04:03:59;99044.94;;;6.83;76.72
34696;BME280;20918;51.138;17.370;2023-03-26T04:07:16;99041.89;;;6.80;76.87
34696;BME280;20918;51.138;17.370;2023-03-26T04:10:35;99026.48;;;6.84;76.81
34696;BME280;20918;51.138;17.370;2023-03-26T04:13:35;99029.71;;;6.85;76.85
34696;BME280;20918;51.138;17.370;2023-03-26T04:17:05;99033.81;;;6.82;76.91
34696;BME280;20918;51.138;17.370;2023-03-26T04:20:09;99035.31;;;6.78;76.92
34696;BME280;20918;51.138;17.370;2023-03-26T04:23:17;99030.68;;;6.73;77.03
34696;BME280;20918;51.138;17.370;2023-03-26T04:26:20;99025.73;;;6.70;77.25
34696;BME280;20918;51.138;17.370;2023-03-26T04:29:39;99025.70;;;6.69;77.27
34696;BME280;20918;51.138;17.370;2023-03-26T04:32:46;99031.28;;;6.66;77.08
34696;BME280;20918;51.138;17.370;2023-03-26T04:35:48;99038.38;;;6.62;77.36
34696;BME280;20918;51.138;17.370;2023-03-26T04:38:50;99038.84;;;6.61;77.45
34696;BME280;20918;51.138;17.370;2023-03-26T04:41:54;99035.08;;;6.62;77.64
34696;BME280;20918;51.138;17.370;2023-03-26T04:44:55;99029.34;;;6.66;77.41
34696;BME280;20918;51.138;17.370;2023-03-26T04:47:58;99029.46;;;6.71;77.25
34696;BME280;20918;51.138;17.370;2023-03-26T04:50:59;99025.98;;;6.78;77.05
34696;BME280;20918;51.138;17.370;2023-03-26T04:54:00;99028.77;;;6.83;76.46
34696;BME280;20918;51.138;17.370;2023-03-26T04:57:21;99026.73;;;6.87;76.38
34696;BME280;20918;51.138;17.370;2023-03-26T05:00:30;99030.56;;;6.89;76.30
34696;BME280;20918;51.138;17.370;2023-03-26T05:03:33;99024.36;;;6.92;75.84
34696;BME280;20918;51.138;17.370;2023-03-26T05:06:39;99026.13;;;6.94;75.67
34696;BME280;20918;51.138;17.370;2023-03-26T05:10:15;99028.41;;;6.99;75.29
34696;BME280;20918;51.138;17.370;2023-03-26T05:13:33;99030.08;;;7.04;75.18
34696;BME280;20918;51.138;17.370;2023-03-26T05:16:37;99034.79;;;7.08;75.25
34696;BME280;20918;51.138;17.370;2023-03-26T05:19:41;99039.95;;;7.12;75.18
34696;BME280;20918;51.138;17.370;2023-03-26T05:22:43;99038.62;;;7.14;74.91
34696;BME280;20918;51.138;17.370;2023-03-26T05:25:49;99038.67;;;7.18;74.68
34696;BME280;20918;51.138;17.370;2023-03-26T05:28:52;99041.52;;;7.23;74.52
34696;BME280;20918;51.138;17.370;2023-03-26T05:31:56;99041.38;;;7.34;74.62
34696;BME280;20918;51.138;17.370;2023-03-26T05:35:04;99041.84;;;7.59;74.24
34696;BME280;20918;51.138;17.370;2023-03-26T05:38:18;99039.48;;;7.68;74.09
34696;BME280;20918;51.138;17.370;2023-03-26T05:41:21;99042.21;;;7.67;73.66
34696;BME280;20918;51.138;17.370;2023-03-26T05:44:22;99045.33;;;7.62;73.65
34696;BME280;20918;51.138;17.370;2023-03-26T05:47:35;99044.02;;;7.60;73.61
34696;BME280;20918;51.138;17.370;2023-03-26T05:50:38;99045.66;;;7.59;73.90
34696;BME280;20918;51.138;17.370;2023-03-26T05:53:42;99043.80;;;7.62;73.92
34696;BME280;20918;51.138;17.370;2023-03-26T05:57:01;99047.58;;;7.64;73.88
34696;BME280;20918;51.138;17.370;2023-03-26T06:00:20;99050.08;;;7.66;73.74
34696;BME280;20918;51.138;17.370;2023-03-26T06:03:25;99051.92;;;7.67;73.72
34696;BME280;20918;51.138;17.370;2023-03-26T06:06:52;99053.08;;;7.66;73.69
34696;BME280;20918;51.138;17.370;2023-03-26T06:09:53;99053.19;;;7.64;73.75
34696;BME280;20918;51.138;17.370;2023-03-26T06:13:00;99052.88;;;7.64;73.77
34696;BME280;20918;51.138;17.370;2023-03-26T06:16:13;99055.14;;;7.66;73.80
34696;BME280;20918;51.138;17.370;2023-03-26T06:19:19;99054.13;;;7.71;73.77
34696;BME280;20918;51.138;17.370;2023-03-26T06:22:23;99055.67;;;7.76;73.77
34696;BME280;20918;51.138;17.370;2023-03-26T06:25:43;99058.98;;;7.79;73.63
34696;BME280;20918;51.138;17.370;2023-03-26T06:29:03;99062.00;;;7.83;73.74
34696;BME280;20918;51.138;17.370;2023-03-26T06:32:17;99066.94;;;7.85;73.88
34696;BME280;20918;51.138;17.370;2023-03-26T06:35:22;99064.99;;;7.88;73.71
34696;BME280;20918;51.138;17.370;2023-03-26T06:38:26;99064.15;;;7.91;73.92
34696;BME280;20918;51.138;17.370;2023-03-26T06:41:27;99063.66;;;7.97;73.63
34696;BME280;20918;51.138;17.370;2023-03-26T06:44:38;99063.12;;;8.03;73.63
34696;BME280;20918;51.138;17.370;2023-03-26T06:48:11;99062.73;;;8.11;73.75
34696;BME280;20918;51.138;17.370;2023-03-26T06:51:23;99061.31;;;8.14;73.49
34696;BME280;20918;51.138;17.370;2023-03-26T06:54:50;99062.38;;;8.16;73.31
34696;BME280;20918;51.138;17.370;2023-03-26T06:58:17;99064.52;;;8.14;73.19
34696;BME280;20918;51.138;17.370;2023-03-26T07:01:46;99059.31;;;8.16;73.20
34696;BME280;20918;51.138;17.370;2023-03-26T07:05:06;99059.01;;;8.19;72.93
34696;BME280;20918;51.138;17.370;2023-03-26T07:08:24;99056.48;;;8.25;72.97
34696;BME280;20918;51.138;17.370;2023-03-26T07:11:43;99061.36;;;8.30;72.87
34696;BME280;20918;51.138;17.370;2023-03-26T07:15:19;99057.02;;;8.36;72.53
34696;BME280;20918;51.138;17.370;2023-03-26T07:18:49;99063.21;;;8.40;72.41
34696;BME280;20918;51.138;17.370;2023-03-26T07:21:55;99056.75;;;8.47;72.46
34696;BME280;20918;51.138;17.370;2023-03-26T07:25:15;99059.71;;;8.54;72.43
34696;BME280;20918;51.138;17.370;2023-03-26T07:28:40;99060.14;;;8.64;72.49
34696;BME280;20918;51.138;17.370;2023-03-26T07:35:52;99057.26;;;8.72;71.73
34696;BME280;20918;51.138;17.370;2023-03-26T07:39:12;99054.55;;;8.74;71.32
34696;BME280;20918;51.138;17.370;2023-03-26T07:46:15;99058.46;;;8.80;71.31
34696;BME280;20918;51.138;17.370;2023-03-26T07:49:44;99057.52;;;8.82;70.99
34696;BME280;20918;51.138;17.370;2023-03-26T07:53:02;99052.89;;;8.88;70.87
34696;BME280;20918;51.138;17.370;2023-03-26T07:56:16;99053.52;;;8.94;70.53
34696;BME280;20918;51.138;17.370;2023-03-26T07:59:53;99053.95;;;9.03;70.10
34696;BME280;20918;51.138;17.370;2023-03-26T08:06:36;99054.42;;;9.24;69.75
34696;BME280;20918;51.138;17.370;2023-03-26T08:22:56;99050.02;;;9.56;68.15
34696;BME280;20918;51.138;17.370;2023-03-26T08:29:50;99039.58;;;9.81;67.78
34696;BME280;20918;51.138;17.370;2023-03-26T08:32:58;99035.48;;;9.90;67.49
34696;BME280;20918;51.138;17.370;2023-03-26T08:35:59;99027.39;;;9.97;67.30
34696;BME280;20918;51.138;17.370;2023-03-26T08:39:00;99029.58;;;9.96;66.89
34696;BME280;20918;51.138;17.370;2023-03-26T08:45:25;99020.40;;;10.00;66.92
34696;BME280;20918;51.138;17.370;2023-03-26T08:55:27;99022.27;;;9.99;66.48
34696;BME280;20918;51.138;17.370;2023-03-26T09:32:14;99028.14;;;11.08;63.19
34696;BME280;20918;51.138;17.370;2023-03-26T09:51:42;99028.96;;;9.49;66.79
34696;BME280;20918;51.138;17.370;2023-03-26T10:11:26;99034.86;;;8.14;71.07
34696;BME280;20918;51.138;17.370;2023-03-26T10:33:58;99017.83;;;9.71;72.72
34696;BME280;20918;51.138;17.370;2023-03-26T10:37:27;99014.58;;;10.05;72.35
34696;BME280;20918;51.138;17.370;2023-03-26T10:47:04;99008.11;;;10.54;71.81
34696;BME280;20918;51.138;17.370;2023-03-26T10:54:07;99008.77;;;10.62;70.92
34696;BME280;20918;51.138;17.370;2023-03-26T11:00:21;99002.67;;;10.65;69.99
34696;BME280;20918;51.138;17.370;2023-03-26T11:26:16;98973.47;;;11.46;66.01
34696;BME280;20918;51.138;17.370;2023-03-26T11:32:55;98981.30;;;11.72;65.25
34696;BME280;20918;51.138;17.370;2023-03-26T11:35:59;98983.68;;;11.91;65.00
34696;BME280;20918;51.138;17.370;2023-03-26T11:39:02;98982.75;;;11.82;64.56
34696;BME280;20918;51.138;17.370;2023-03-26T11:42:06;98980.58;;;11.74;65.14
34696;BME280;20918;51.138;17.370;2023-03-26T11:45:17;98980.41;;;11.93;65.04
34696;BME280;20918;51.138;17.370;2023-03-26T11:51:58;98971.02;;;12.29;64.71
34696;BME280;20918;51.138;17.370;2023-03-26T11:55:00;98966.73;;;12.57;64.79
34696;BME280;20918;51.138;17.370;2023-03-26T11:58:26;98957.54;;;12.83;63.86
34696;BME280;20918;51.138;17.370;2023-03-26T12:08:26;98941.80;;;13.31;61.45
34696;BME280;20918;51.138;17.370;2023-03-26T12:14:40;98939.54;;;13.21;60.53
34696;BME280;20918;51.138;17.370;2023-03-26T12:17:45;98932.08;;;12.97;60.41
34696;BME280;20918;51.138;17.370;2023-03-26T12:21:03;98932.80;;;12.68;60.35
34696;BME280;20918;51.138;17.370;2023-03-26T12:24:04;98932.21;;;12.39;60.83
34696;BME280;20918;51.138;17.370;2023-03-26T12:27:24;98929.54;;;12.20;60.78
34696;BME280;20918;51.138;17.370;2023-03-26T12:30:31;98931.34;;;12.02;60.64
34696;BME280;20918;51.138;17.370;2023-03-26T12:33:36;98930.09;;;11.89;60.66
34696;BME280;20918;51.138;17.370;2023-03-26T12:36:38;98927.61;;;11.82;60.77
34696;BME280;20918;51.138;17.370;2023-03-26T12:39:41;98923.46;;;11.76;60.63
34696;BME280;20918;51.138;17.370;2023-03-26T12:42:43;98922.14;;;11.70;60.87
34696;BME280;20918;51.138;17.370;2023-03-26T12:45:56;98921.43;;;11.63;61.06
34696;BME280;20918;51.138;17.370;2023-03-26T12:49:05;98918.40;;;11.50;61.03
34696;BME280;20918;51.138;17.370;2023-03-26T12:52:20;98915.42;;;11.37;61.19
34696;BME280;20918;51.138;17.370;2023-03-26T12:55:43;98917.34;;;11.31;61.50
34696;BME280;20918;51.138;17.370;2023-03-26T13:09:06;98900.73;;;11.50;61.93
34696;BME280;20918;51.138;17.370;2023-03-26T13:21:50;98886.34;;;11.79;61.38
34696;BME280;20918;51.138;17.370;2023-03-26T13:34:46;98872.94;;;11.87;58.27
34696;BME280;20918;51.138;17.370;2023-03-26T13:37:54;98877.41;;;11.82;58.68
34696;BME280;20918;51.138;17.370;2023-03-26T13:47:10;98871.72;;;11.98;58.38
34696;BME280;20918;51.138;17.370;2023-03-26T13:50:26;98869.92;;;12.20;58.60
34696;BME280;20918;51.138;17.370;2023-03-26T13:53:28;98864.12;;;12.41;58.05
34696;BME280;20918;51.138;17.370;2023-03-26T13:56:33;98864.87;;;12.49;57.78
34696;BME280;20918;51.138;17.370;2023-03-26T13:59:39;98865.39;;;12.58;57.49
34696;BME280;20918;51.138;17.370;2023-03-26T14:06:23;98865.00;;;12.58;57.15
34696;BME280;20918;51.138;17.370;2023-03-26T14:16:25;98872.43;;;12.37;57.02
34696;BME280;20918;51.138;17.370;2023-03-26T14:23:02;98862.02;;;12.26;56.87
34696;BME280;20918;51.138;17.370;2023-03-26T14:26:45;98857.77;;;12.26;57.05
34696;BME280;20918;51.138;17.370;2023-03-26T14:33:18;98855.48;;;12.21;56.82
34696;BME280;20918;51.138;17.370;2023-03-26T14:42:56;98845.56;;;12.17;56.75
34696;BME280;20918;51.138;17.370;2023-03-26T15:08:25;98813.65;;;12.14;56.51
34696;BME280;20918;51.138;17.370;2023-03-26T15:15:00;98817.49;;;11.95;56.38
34696;BME280;20918;51.138;17.370;2023-03-26T15:21:22;98817.04;;;11.69;56.16
34696;BME280;20918;51.138;17.370;2023-03-26T15:24:34;98816.11;;;11.57;56.33
34696;BME280;20918;51.138;17.370;2023-03-26T15:27:49;98818.39;;;11.48;56.42
34696;BME280;20918;51.138;17.370;2023-03-26T15:31:05;98820.60;;;11.37;56.46
34696;BME280;20918;51.138;17.370;2023-03-26T15:50:25;98823.00;;;10.70;59.65
34696;BME280;20918;51.138;17.370;2023-03-26T16:04:16;98820.84;;;10.14;61.25
34696;BME280;20918;51.138;17.370;2023-03-26T16:11:09;98824.89;;;10.01;61.89
34696;BME280;20918;51.138;17.370;2023-03-26T16:14:21;98819.27;;;9.94;62.22
34696;BME280;20918;51.138;17.370;2023-03-26T16:17:28;98821.42;;;9.82;62.87
34696;BME280;20918;51.138;17.370;2023-03-26T16:24:37;98846.63;;;9.59;63.47
34696;BME280;20918;51.138;17.370;2023-03-26T16:27:40;98856.53;;;9.49;63.81
34696;BME280;20918;51.138;17.370;2023-03-26T16:34:22;98847.44;;;9.07;64.18
34696;BME280;20918;51.138;17.370;2023-03-26T16:37:51;98845.14;;;8.82;64.44
34696;BME280;20918;51.138;17.370;2023-03-26T16:41:15;98845.79;;;8.64;65.45
34696;BME280;20918;51.138;17.370;2023-03-26T16:44:41;98838.63;;;8.51;65.88
34696;BME280;20918;51.138;17.370;2023-03-26T16:47:54;98832.72;;;8.43;66.42
34696;BME280;20918;51.138;17.370;2023-03-26T16:51:14;98821.77;;;8.35;67.14
34696;BME280;20918;51.138;17.370;2023-03-26T16:57:51;98807.38;;;8.28;67.63
34696;BME280;20918;51.138;17.370;2023-03-26T17:04:32;98808.47;;;8.31;68.23
34696;BME280;20918;51.138;17.370;2023-03-26T17:07:40;98800.11;;;8.33;68.38
34696;BME280;20918;51.138;17.370;2023-03-26T17:21:18;98781.33;;;8.16;69.56
34696;BME280;20918;51.138;17.370;2023-03-26T17:24:35;98777.99;;;8.01;69.99
34696;BME280;20918;51.138;17.370;2023-03-26T17:45:49;98789.34;;;7.78;71.92
34696;BME280;20918;51.138;17.370;2023-03-26T17:49:33;98788.79;;;7.74;71.99
34696;BME280;20918;51.138;17.370;2023-03-26T17:56:59;98790.44;;;7.84;72.53
34696;BME280;20918;51.138;17.370;2023-03-26T18:01:00;98791.95;;;7.90;72.69
34696;BME280;20918;51.138;17.370;2023-03-26T18:03:59;98792.32;;;7.89;72.45
34696;BME280;20918;51.138;17.370;2023-03-26T18:25:22;98797.11;;;7.47;73.47
34696;BME280;20918;51.138;17.370;2023-03-26T18:28:33;98803.41;;;7.42;73.64
34696;BME280;20918;51.138;17.370;2023-03-26T18:32:36;98810.48;;;7.28;73.70
34696;BME280;20918;51.138;17.370;2023-03-26T18:35:23;98813.34;;;7.14;73.91
34696;BME280;20918;51.138;17.370;2023-03-26T18:39:04;98810.56;;;7.09;74.20
34696;BME280;20918;51.138;17.370;2023-03-26T18:42:30;98807.58;;;7.08;74.10
34696;BME280;20918;51.138;17.370;2023-03-26T18:45:52;98807.83;;;7.07;74.17
34696;BME280;20918;51.138;17.370;2023-03-26T18:48:57;98803.76;;;7.07;74.30
34696;BME280;20918;51.138;17.370;2023-03-26T18:52:21;98799.84;;;7.08;74.38
34696;BME280;20918;51.138;17.370;2023-03-26T18:55:31;98795.00;;;7.10;74.46
34696;BME280;20918;51.138;17.370;2023-03-26T18:58:36;98788.71;;;7.10;74.48
34696;BME280;20918;51.138;17.370;2023-03-26T19:01:38;98781.02;;;7.09;75.01
34696;BME280;20918;51.138;17.370;2023-03-26T19:04:42;98785.93;;;7.09;75.12
34696;BME280;20918;51.138;17.370;2023-03-26T19:08:01;98788.04;;;7.06;75.42
34696;BME280;20918;51.138;17.370;2023-03-26T19:11:43;98782.94;;;7.02;75.51
34696;BME280;20918;51.138;17.370;2023-03-26T19:18:16;98777.91;;;7.03;75.75
34696;BME280;20918;51.138;17.370;2023-03-26T19:21:18;98773.29;;;7.05;75.96
34696;BME280;20918;51.138;17.370;2023-03-26T19:24:22;98771.55;;;7.10;75.97
34696;BME280;20918;51.138;17.370;2023-03-26T19:27:24;98777.27;;;7.13;76.09
34696;BME280;20918;51.138;17.370;2023-03-26T19:30:39;98773.81;;;7.12;75.96
34696;BME280;20918;51.138;17.370;2023-03-26T19:33:52;98770.58;;;7.10;76.14
34696;BME280;20918;51.138;17.370;2023-03-26T19:36:57;98773.07;;;7.13;76.20
34696;BME280;20918;51.138;17.370;2023-03-26T19:40:12;98767.63;;;7.18;76.38
34696;BME280;20918;51.138;17.370;2023-03-26T19:43:19;98753.13;;;7.26;76.38
34696;BME280;20918;51.138;17.370;2023-03-26T19:46:20;98753.70;;;7.31;76.30
34696;BME280;20918;51.138;17.370;2023-03-26T19:49:26;98751.80;;;7.37;76.41
34696;BME280;20918;51.138;17.370;2023-03-26T19:52:29;98750.46;;;7.42;76.27
34696;BME280;20918;51.138;17.370;2023-03-26T19:55:35;98744.30;;;7.45;76.23
34696;BME280;20918;51.138;17.370;2023-03-26T19:58:45;98741.20;;;7.45;76.17
34696;BME280;20918;51.138;17.370;2023-03-26T20:01:54;98742.25;;;7.44;76.21
34696;BME280;20918;51.138;17.370;2023-03-26T20:08:16;98741.69;;;7.50;76.23
34696;BME280;20918;51.138;17.370;2023-03-26T20:11:18;98738.52;;;7.48;76.20
34696;BME280;20918;51.138;17.370;2023-03-26T20:14:19;98739.05;;;7.47;76.37
34696;BME280;20918;51.138;17.370;2023-03-26T20:17:28;98742.31;;;7.49;76.43
34696;BME280;20918;51.138;17.370;2023-03-26T20:20:30;98749.55;;;7.54;76.51
34696;BME280;20918;51.138;17.370;2023-03-26T20:23:44;98748.98;;;7.52;76.34
34696;BME280;20918;51.138;17.370;2023-03-26T20:26:45;98751.89;;;7.48;76.45
34696;BME280;20918;51.138;17.370;2023-03-26T20:29:49;98744.76;;;7.46;76.69
34696;BME280;20918;51.138;17.370;2023-03-26T20:32:52;98741.15;;;7.44;76.70
34696;BME280;20918;51.138;17.370;2023-03-26T20:35:54;98735.89;;;7.39;76.95
34696;BME280;20918;51.138;17.370;2023-03-26T20:38:55;98728.94;;;7.37;77.12
34696;BME280;20918;51.138;17.370;2023-03-26T20:42:18;98720.70;;;7.36;76.97
34696;BME280;20918;51.138;17.370;2023-03-26T20:52:20;98714.06;;;7.38;77.10
34696;BME280;20918;51.138;17.370;2023-03-26T20:55:41;98711.91;;;7.35;77.15
34696;BME280;20918;51.138;17.370;2023-03-26T20:59:45;98709.59;;;7.32;77.21
34696;BME280;20918;51.138;17.370;2023-03-26T21:02:54;98708.38;;;7.26;77.32
34696;BME280;20918;51.138;17.370;2023-03-26T21:09:52;98701.35;;;7.11;77.79
34696;BME280;20918;51.138;17.370;2023-03-26T21:14:07;98698.61;;;7.04;77.99
34696;BME280;20918;51.138;17.370;2023-03-26T21:16:55;98698.39;;;7.03;78.15
34696;BME280;20918;51.138;17.370;2023-03-26T21:24:18;98682.38;;;6.99;78.32
34696;BME280;20918;51.138;17.370;2023-03-26T21:31:05;98689.55;;;6.88;78.83
34696;BME280;20918;51.138;17.370;2023-03-26T21:35:03;98699.41;;;6.88;78.95
34696;BME280;20918;51.138;17.370;2023-03-26T21:38:06;98700.83;;;6.88;78.95
34696;BME280;20918;51.138;17.370;2023-03-26T21:41:29;98701.97;;;6.86;79.16
34696;BME280;20918;51.138;17.370;2023-03-26T21:45:02;98703.20;;;6.84;79.21
34696;BME280;20918;51.138;17.370;2023-03-26T21:48:07;98694.77;;;6.83;79.34
34696;BME280;20918;51.138;17.370;2023-03-26T21:54:37;98688.42;;;6.79;79.66
34696;BME280;20918;51.138;17.370;2023-03-26T22:00:50;98683.30;;;6.71;79.73
34696;BME280;20918;51.138;17.370;2023-03-26T22:15:06;98674.09;;;6.57;79.96
34696;BME280;20918;51.138;17.370;2023-03-26T22:26:37;98673.30;;;6.46;80.27
34696;BME280;20918;51.138;17.370;2023-03-26T22:29:52;98685.44;;;6.45;80.39
34696;BME280;20918;51.138;17.370;2023-03-26T22:40:02;98681.20;;;6.45;80.59
34696;BME280;20918;51.138;17.370;2023-03-26T22:43:18;98677.42;;;6.41;80.71
34696;BME280;20918;51.138;17.370;2023-03-26T22:46:23;98674.57;;;6.40;80.70
34696;BME280;20918;51.138;17.370;2023-03-26T22:49:35;98674.27;;;6.40;80.63
34696;BME280;20918;51.138;17.370;2023-03-26T22:52:56;98671.27;;;6.40;80.75
34696;BME280;20918;51.138;17.370;2023-03-26T22:56:10;98675.86;;;6.39;80.77
34696;BME280;20918;51.138;17.370;2023-03-26T22:59:31;98682.21;;;6.39;80.92
34696;BME280;20918;51.138;17.370;2023-03-26T23:02:42;98677.23;;;6.37;80.76
34696;BME280;20918;51.138;17.370;2023-03-26T23:06:36;98679.14;;;6.35;80.87
34696;BME280;20918;51.138;17.370;2023-03-26T23:10:05;98686.46;;;6.34;81.14
34696;BME280;20918;51.138;17.370;2023-03-26T23:13:21;98681.48;;;6.33;81.03
34696;BME280;20918;51.138;17.370;2023-03-26T23:16:22;98687.71;;;6.33;81.01
34696;BME280;20918;51.138;17.370;2023-03-26T23:26:40;98693.06;;;6.32;81.20
34696;BME280;20918;51.138;17.370;2023-03-26T23:29:47;98691.24;;;6.32;81.25
34696;BME280;20918;51.138;17.370;2023-03-26T23:32:54;98687.88;;;6.33;81.24
34696;BME280;20918;51.138;17.370;2023-03-26T23:35:59;98690.95;;;6.32;81.54
34696;BME280;20918;51.138;17.370;2023-03-26T23:39:23;98690.66;;;6.31;81.51
34696;BME280;20918;51.138;17.370;2023-03-26T23:42:31;98694.23;;;6.31;81.53
34696;BME280;20918;51.138;17.370;2023-03-26T23:45:36;98697.23;;;6.31;81.55
34696;BME280;20918;51.138;17.370;2023-03-26T23:48:40;98695.96;;;6.31;81.63
34696;BME280;20918;51.138;17.370;2023-03-26T23:51:46;98691.58;;;6.33;81.67
34696;BME280;20918;51.138;17.370;2023-03-26T23:58:22;98687.95;;;6.34;81.83
